Miccosukee, FL (32309)

1:13 AM EDT on March 29, 2015 (GMT -0400)
Andara Farms | | Change Station
CLOSE
Current Station
Personal Weather Station
Location: Tallahassee, FL
Elevation: 108 ft
Nearby Weather Stations
Active Advisory: Fire Weather Watch

Elev 108 ft 30.53 °N, 84.06 °W | Updated 5 minutes ago

Clear
Clear
43.3 °F
Feels Like 43 °F
N
0.0
Wind Variable Wind from East

Today
High -- | Low -- °F
--% Chance of Precip.
Yesterday
High -- | Low -- °F
Precip. -- in
7:29 AM 7:53 PM
Waxing Gibbous, 68% visible
Pressure 30.28 in
Visibility 10.0 miles
Clouds Clear
Windchill 43 °F
Dew Point 43 °F
Humidity 98%
Rainfall 0.00 in
Snow Depth Not available.
UV 0 out of 12
Pollen 10.00 out of 12
Air Quality Not available.
Flu Activity Not available.
METAR KTLH 290453Z 28003KT 10SM CLR 08/02 A3028 RMK AO2 SLP253 T00830022 401830056

More Conditions Fewer Conditions

Pressure 30.28 in
Visibility 10.0 miles
Clouds Clear
Windchill 43 °F
Dew Point 43 °F
Humidity 98%
Rainfall 0.00 in
Snow Depth Not available.
UV 0 out of 12
Pollen 10.00 out of 12
Air Quality Not available.
Flu Activity Not available.
METAR KTLH 290453Z 28003KT 10SM CLR 08/02 A3028 RMK AO2 SLP253 T00830022 401830056

More Conditions Fewer Conditions

10-Day Weather Forecast

Almanac

Astronomy

Mar. 29, 2015 Rise Set
Actual Time
Civil Twilight
Nautical Twilight
Astronomical Twilight
Moon
Length of Visible Light
Length of Day
Tomorrow will be .
, % of the Moon is Illuminated

Today's Extremes

State Highs State Lows

Community

WunderPhotos

Upload Photos

1,809,189 photos uploaded!

WunderBlogs® & News

Nearby

Air Quality

  Air Quality AQ Index Pollutant
Not available.

Snow Depth

Station Depth Elevation

Earthquake Activity

City Distance Mag. Time & Date
Minimum magnitude displayed is 2.5.

Coastal Water Temperatures

Place Temperature

Stations

Nearby Weather Stations

Station Location Temp. Windchill Dew Point Humidity Wind Precip. Elev Updated Type
                   
Fire Weather Watch
Statement as of 2:57 PM EDT on March 28, 2015

... Fire Weather Watch now in effect Sunday afternoon...

* wind... northeast around 5 mph.

* Humidity... minimum of 24 percent.

* Erc... around 37.

Precautionary/preparedness actions...

A Fire Weather Watch means that critical fire weather conditions
are forecast to occur. Listen for later forecasts and possible
red flag warnings.



18-wool